Time;durP1;ratioP1;P1;durP2;ratioP2;P2;SDS_P1;SDS_P2;PMS_P1;PMS_P2;Temp;Humidity;BMP_temperature;BMP_pressure;BME280_temperature;BME280_humidity;BME280_pressure;Samples;Min_cycle;Max_cycle;Signal;HPM_P1;HPM_P2
2023/02/28 00:01:31;;;;;;;9.73;2.90;;;;;;;;;;5086606;28;20043;-73
2023/02/28 00:04:01;;;;;;;3.53;2.63;;;;;;;;;;5087225;28;20047;-73
2023/02/28 00:06:32;;;;;;;9.30;2.40;;;;;;;;;;5087060;28;20510;-73
2023/02/28 00:09:04;;;;;;;5.25;2.63;;;;;;;;;;5087281;28;20056;-72
2023/02/28 00:11:35;;;;;;;7.22;2.20;;;;;;;;;;5086200;28;20498;-73
2023/02/28 00:14:04;;;;;;;3.13;2.10;;;;;;;;;;5086585;28;20059;-73
2023/02/28 00:16:35;;;;;;;6.72;2.63;;;;;;;;;;5086032;28;20047;-72
2023/02/28 00:19:07;;;;;;;4.97;2.38;;;;;;;;;;5086273;28;20048;-73
2023/02/28 00:21:40;;;;;;;6.80;3.03;;;;;;;;;;5087079;28;20036;-73
2023/02/28 00:24:10;;;;;;;7.22;3.03;;;;;;;;;;5086525;28;20087;-73
2023/02/28 00:26:40;;;;;;;5.45;2.47;;;;;;;;;;5085879;28;20048;-73
2023/02/28 00:29:11;;;;;;;6.88;2.70;;;;;;;;;;5086525;28;20040;-73
2023/02/28 00:31:41;;;;;;;8.50;2.65;;;;;;;;;;5086981;28;20660;-72
2023/02/28 00:34:12;;;;;;;6.15;2.25;;;;;;;;;;5086141;28;20149;-71
2023/02/28 00:36:45;;;;;;;6.75;2.97;;;;;;;;;;5086138;28;20047;-74
2023/02/28 00:39:15;;;;;;;4.13;2.80;;;;;;;;;;5086892;28;20048;-75
2023/02/28 00:41:46;;;;;;;14.20;3.05;;;;;;;;;;5070207;28;20075;-73
2023/02/28 00:44:17;;;;;;;10.38;3.05;;;;;;;;;;5073247;28;20048;-71
2023/02/28 00:46:48;;;;;;;7.95;2.55;;;;;;;;;;5089664;28;20055;-72
2023/02/28 00:49:18;;;;;;;4.43;2.50;;;;;;;;;;5090482;28;20514;-72
2023/02/28 00:51:50;;;;;;;5.55;2.50;;;;;;;;;;5090555;28;20060;-72
2023/02/28 00:54:23;;;;;;;5.15;2.33;;;;;;;;;;5072832;28;20047;-73
2023/02/28 00:56:53;;;;;;;9.15;2.83;;;;;;;;;;5071906;28;20048;-73
2023/02/28 00:59:23;;;;;;;7.05;2.70;;;;;;;;;;5090754;28;20056;-73
2023/02/28 01:01:54;;;;;;;11.60;2.80;;;;;;;;;;5090142;28;20048;-72
2023/02/28 01:04:24;;;;;;;5.97;3.28;;;;;;;;;;5090250;28;20047;-73
2023/02/28 01:06:55;;;;;;;8.32;2.67;;;;;;;;;;5090146;28;20597;-74
2023/02/28 01:09:25;;;;;;;5.50;2.60;;;;;;;;;;5090580;28;20067;-77
2023/02/28 01:11:55;;;;;;;12.68;3.30;;;;;;;;;;5071247;28;20052;-72
2023/02/28 01:14:26;;;;;;;9.90;3.00;;;;;;;;;;5070576;28;20056;-72
2023/02/28 01:16:56;;;;;;;8.88;3.22;;;;;;;;;;5071361;28;20048;-73
2023/02/28 01:19:28;;;;;;;5.43;2.65;;;;;;;;;;5071009;28;20055;-75
2023/02/28 01:22:05;;;;;;;14.35;3.28;;;;;;;;;;5090700;28;20048;-73
2023/02/28 01:24:35;;;;;;;4.00;2.72;;;;;;;;;;5092396;28;20054;-74
2023/02/28 01:27:06;;;;;;;5.70;2.90;;;;;;;;;;5100317;28;20395;-72
2023/02/28 01:29:38;;;;;;;9.27;3.03;;;;;;;;;;5109603;28;20055;-73
2023/02/28 01:32:10;;;;;;;4.07;2.50;;;;;;;;;;5092642;28;20043;-76
2023/02/28 01:34:41;;;;;;;4.50;2.78;;;;;;;;;;5110187;28;20055;-73
2023/02/28 01:37:11;;;;;;;5.07;2.75;;;;;;;;;;5074741;28;20047;-73
2023/02/28 01:39:44;;;;;;;5.03;3.03;;;;;;;;;;5101839;28;20052;-74
2023/02/28 01:42:15;;;;;;;8.57;2.72;;;;;;;;;;5100177;28;20533;-73
2023/02/28 01:45:06;;;;;;;7.82;2.80;;;;;;;;;;5097853;28;20486;-73
2023/02/28 01:47:41;;;;;;;4.55;2.85;;;;;;;;;;5082014;28;20835;-74
2023/02/28 01:50:16;;;;;;;5.00;2.53;;;;;;;;;;5099482;28;20506;-73
2023/02/28 01:52:51;;;;;;;7.45;2.88;;;;;;;;;;5098016;28;20692;-74
2023/02/28 01:55:22;;;;;;;5.95;3.17;;;;;;;;;;5097896;28;20054;-74
2023/02/28 01:57:57;;;;;;;9.70;3.22;;;;;;;;;;5098809;28;20040;-73
2023/02/28 02:00:29;;;;;;;4.88;2.95;;;;;;;;;;5090073;28;21177;-72
2023/02/28 02:03:07;;;;;;;7.88;3.20;;;;;;;;;;5099749;28;20043;-73
2023/02/28 02:05:39;;;;;;;3.50;2.80;;;;;;;;;;5080904;28;20059;-73
2023/02/28 02:08:27;;;;;;;9.13;2.75;;;;;;;;;;5098519;28;20043;-75
2023/02/28 02:11:03;;;;;;;5.03;2.88;;;;;;;;;;5080641;28;20043;-74
2023/02/28 02:13:52;;;;;;;;;;;;;;;;;;5080288;28;20059;-72
2023/02/28 02:16:34;;;;;;;6.97;2.92;;;;;;;;;;5100424;28;20417;-73
2023/02/28 02:19:44;;;;;;;8.77;3.17;;;;;;;;;;5081778;28;20040;-73
2023/02/28 02:22:34;;;;;;;6.45;2.88;;;;;;;;;;5064022;28;20063;-73
2023/02/28 02:25:23;;;;;;;6.68;3.28;;;;;;;;;;5099481;28;20035;-73
2023/02/28 02:28:08;;;;;;;6.10;2.58;;;;;;;;;;5097667;28;20494;-74
2023/02/28 02:31:17;;;;;;;4.80;2.95;;;;;;;;;;5099527;28;20051;-74
2023/02/28 02:34:08;;;;;;;9.13;3.53;;;;;;;;;;5080024;28;20129;-74
2023/02/28 02:36:53;;;;;;;13.20;3.33;;;;;;;;;;5068656;28;20047;-74
2023/02/28 02:39:44;;;;;;;11.88;3.47;;;;;;;;;;5096878;28;20055;-73
2023/02/28 02:42:26;;;;;;;6.75;3.40;;;;;;;;;;5082921;28;20047;-75
2023/02/28 02:45:06;;;;;;;7.68;3.30;;;;;;;;;;5098688;28;20047;-74
2023/02/28 02:47:38;;;;;;;6.88;3.65;;;;;;;;;;5093547;28;20885;-74
2023/02/28 02:50:18;;;;;;;7.75;3.25;;;;;;;;;;5068658;28;20044;-74
2023/02/28 02:52:55;;;;;;;7.97;3.05;;;;;;;;;;5086034;28;20043;-73
2023/02/28 02:55:29;;;;;;;7.90;3.15;;;;;;;;;;5069130;28;20051;-73
2023/02/28 02:58:13;;;;;;;10.00;3.38;;;;;;;;;;5069453;28;20052;-74
2023/02/28 03:00:49;;;;;;;9.35;3.53;;;;;;;;;;5088102;28;20059;-73
2023/02/28 03:04:22;;;;;;;11.30;3.00;;;;;;;;;;5087447;28;20044;-74
2023/02/28 03:06:55;;;;;;;9.73;3.63;;;;;;;;;;5069872;28;20051;-73
2023/02/28 03:09:27;;;;;;;4.78;2.75;;;;;;;;;;5087847;28;20380;-73
2023/02/28 03:11:58;;;;;;;7.95;3.58;;;;;;;;;;5088328;28;20103;-73
2023/02/28 03:15:11;;;;;;;6.72;3.10;;;;;;;;;;5069801;28;20055;-73
2023/02/28 03:17:56;;;;;;;8.23;2.88;;;;;;;;;;5069583;28;20059;-74
2023/02/28 03:20:48;;;;;;;7.43;2.90;;;;;;;;;;5069673;28;20059;-73
2023/02/28 03:23:35;;;;;;;7.88;3.38;;;;;;;;;;5069252;28;20052;-73
2023/02/28 03:26:27;;;;;;;5.38;3.20;;;;;;;;;;5087873;28;20048;-73
2023/02/28 03:29:16;;;;;;;5.57;3.08;;;;;;;;;;5088646;28;20040;-72
2023/02/28 03:32:14;;;;;;;5.70;2.72;;;;;;;;;;5087333;28;20040;-73
2023/02/28 03:35:11;;;;;;;8.88;2.90;;;;;;;;;;5087754;28;20506;-73
2023/02/28 03:37:45;;;;;;;5.68;2.63;;;;;;;;;;5078718;28;20545;-73
2023/02/28 03:40:20;;;;;;;10.15;2.65;;;;;;;;;;5087314;28;20075;-73
2023/02/28 03:42:56;;;;;;;9.93;2.33;;;;;;;;;;5087592;28;20051;-73
2023/02/28 03:45:30;;;;;;;3.33;2.40;;;;;;;;;;5087481;28;20059;-73
2023/02/28 03:48:09;;;;;;;3.20;2.35;;;;;;;;;;5087693;28;20056;-73
2023/02/28 03:50:46;;;;;;;12.02;2.20;;;;;;;;;;5087057;28;20059;-73
2023/02/28 03:53:57;;;;;;;4.43;2.60;;;;;;;;;;5087696;28;20044;-73
2023/02/28 03:57:10;;;;;;;5.50;2.50;;;;;;;;;;5060490;28;20523;-72
2023/02/28 03:59:48;;;;;;;8.20;2.45;;;;;;;;;;5024525;28;20422;-72
2023/02/28 04:02:18;;;;;;;8.35;2.35;;;;;;;;;;5086767;28;20055;-73
2023/02/28 04:04:48;;;;;;;5.00;2.25;;;;;;;;;;5087299;28;20054;-72
2023/02/28 04:07:20;;;;;;;4.40;2.70;;;;;;;;;;5087186;28;20048;-73
2023/02/28 04:09:52;;;;;;;5.57;2.60;;;;;;;;;;5087242;28;20040;-73
2023/02/28 04:12:23;;;;;;;4.22;2.28;;;;;;;;;;5087069;28;20044;-73
2023/02/28 04:14:52;;;;;;;3.33;2.22;;;;;;;;;;5087191;28;20048;-73
2023/02/28 04:17:23;;;;;;;3.30;2.50;;;;;;;;;;5087078;28;20110;-71
2023/02/28 04:19:57;;;;;;;5.22;2.50;;;;;;;;;;5085445;28;20064;-73
2023/02/28 04:22:27;;;;;;;5.18;2.30;;;;;;;;;;5087582;28;20376;-72
2023/02/28 04:24:57;;;;;;;4.50;2.50;;;;;;;;;;5086640;28;20044;-73
2023/02/28 04:27:27;;;;;;;7.63;2.38;;;;;;;;;;5068045;28;20052;-75
2023/02/28 04:30:01;;;;;;;5.40;2.38;;;;;;;;;;5086646;28;20044;-71
2023/02/28 04:32:32;;;;;;;7.85;2.92;;;;;;;;;;5087052;28;20047;-73
2023/02/28 04:35:02;;;;;;;5.50;2.58;;;;;;;;;;5086838;28;20044;-73
2023/02/28 04:37:34;;;;;;;4.95;3.22;;;;;;;;;;5086667;28;20044;-71
2023/02/28 04:40:06;;;;;;;5.63;2.75;;;;;;;;;;5086437;28;20051;-72
2023/02/28 04:42:36;;;;;;;4.85;2.42;;;;;;;;;;5069342;28;20394;-72
2023/02/28 04:45:09;;;;;;;4.43;2.38;;;;;;;;;;5068162;28;20052;-71
2023/02/28 04:47:41;;;;;;;4.47;2.28;;;;;;;;;;5087323;28;20051;-72
2023/02/28 04:50:11;;;;;;;4.15;2.42;;;;;;;;;;5086688;28;20056;-72
2023/02/28 04:52:42;;;;;;;5.00;2.25;;;;;;;;;;5086819;28;20495;-73
2023/02/28 04:55:12;;;;;;;10.85;2.47;;;;;;;;;;5086172;28;20052;-72
2023/02/28 04:57:42;;;;;;;4.60;2.67;;;;;;;;;;5086525;28;20048;-72
2023/02/28 05:00:16;;;;;;;6.70;2.45;;;;;;;;;;5085834;28;20052;-73
2023/02/28 05:02:47;;;;;;;3.58;2.50;;;;;;;;;;5086436;28;20051;-72
2023/02/28 05:05:18;;;;;;;4.88;2.83;;;;;;;;;;5087195;28;20056;-73
2023/02/28 05:07:49;;;;;;;5.53;2.80;;;;;;;;;;5086543;28;20514;-72
2023/02/28 05:10:18;;;;;;;6.47;2.55;;;;;;;;;;5086752;28;20067;-71
2023/02/28 05:12:50;;;;;;;5.85;2.63;;;;;;;;;;5069022;28;20044;-72
2023/02/28 05:15:21;;;;;;;6.28;2.80;;;;;;;;;;5086515;28;20052;-72
2023/02/28 05:17:51;;;;;;;4.82;2.78;;;;;;;;;;5086233;28;20048;-72
2023/02/28 05:20:22;;;;;;;7.93;3.08;;;;;;;;;;5085742;28;20059;-71
2023/02/28 05:22:52;;;;;;;6.60;2.70;;;;;;;;;;5086904;28;20044;-72
2023/02/28 05:25:23;;;;;;;5.63;2.70;;;;;;;;;;5067497;28;20067;-72
2023/02/28 05:27:54;;;;;;;6.05;2.97;;;;;;;;;;5087394;28;20055;-73
2023/02/28 05:30:25;;;;;;;5.28;2.80;;;;;;;;;;5089313;28;20048;-72
2023/02/28 05:32:55;;;;;;;5.22;2.47;;;;;;;;;;5090074;28;20411;-71
2023/02/28 05:35:28;;;;;;;8.88;2.85;;;;;;;;;;5090361;28;20399;-72
2023/02/28 05:37:58;;;;;;;8.88;3.03;;;;;;;;;;5090533;28;20040;-72
2023/02/28 05:40:27;;;;;;;6.72;2.97;;;;;;;;;;5090227;28;20047;-72
2023/02/28 05:42:58;;;;;;;7.15;2.58;;;;;;;;;;5071824;28;20502;-73
2023/02/28 05:45:28;;;;;;;6.30;2.97;;;;;;;;;;5089791;28;20044;-73
2023/02/28 05:48:00;;;;;;;8.65;3.20;;;;;;;;;;5089970;28;20044;-71
2023/02/28 05:50:30;;;;;;;5.38;3.03;;;;;;;;;;5089487;28;20060;-72
2023/02/28 05:53:01;;;;;;;6.22;2.80;;;;;;;;;;5089241;28;20040;-72
2023/02/28 05:55:31;;;;;;;5.43;2.63;;;;;;;;;;5089158;28;20044;-71
2023/02/28 05:58:02;;;;;;;6.20;2.67;;;;;;;;;;5071548;28;20848;-71
2023/02/28 06:00:33;;;;;;;5.32;3.05;;;;;;;;;;5089787;28;20048;-71
2023/02/28 06:03:04;;;;;;;6.97;3.10;;;;;;;;;;5089783;28;20047;-72
2023/02/28 06:05:33;;;;;;;6.18;2.65;;;;;;;;;;5089879;28;20044;-71
2023/02/28 06:08:06;;;;;;;7.82;2.95;;;;;;;;;;5089398;28;20533;-71
2023/02/28 06:10:37;;;;;;;4.00;3.13;;;;;;;;;;5089266;28;20047;-72
2023/02/28 06:13:08;;;;;;;3.65;3.08;;;;;;;;;;5089761;28;20047;-72
2023/02/28 06:15:40;;;;;;;4.80;2.92;;;;;;;;;;5089242;28;21074;-72
2023/02/28 06:18:10;;;;;;;4.63;3.20;;;;;;;;;;5089502;28;20055;-73
2023/02/28 06:20:42;;;;;;;3.80;2.88;;;;;;;;;;5071520;28;20047;-71
2023/02/28 06:23:13;;;;;;;7.90;2.75;;;;;;;;;;5089287;28;20431;-72
2023/02/28 06:25:45;;;;;;;6.45;3.20;;;;;;;;;;5088947;28;20483;-71
2023/02/28 06:28:16;;;;;;;9.23;3.08;;;;;;;;;;5090019;28;20047;-72
2023/02/28 06:30:47;;;;;;;5.15;2.83;;;;;;;;;;5088549;28;20036;-71
2023/02/28 06:33:18;;;;;;;5.50;3.05;;;;;;;;;;5089104;28;20040;-72
2023/02/28 06:35:51;;;;;;;6.22;3.03;;;;;;;;;;5088716;28;20048;-72
2023/02/28 06:38:21;;;;;;;5.00;2.88;;;;;;;;;;5088117;28;20058;-72
2023/02/28 06:40:59;;;;;;;10.23;3.28;;;;;;;;;;5088275;28;20519;-72
2023/02/28 06:43:32;;;;;;;6.82;3.13;;;;;;;;;;5088603;28;20059;-73
2023/02/28 06:46:05;;;;;;;6.53;3.22;;;;;;;;;;5088457;28;20048;-73
2023/02/28 06:48:36;;;;;;;6.65;3.00;;;;;;;;;;5088592;28;20063;-72
2023/02/28 06:51:13;;;;;;;3.55;2.60;;;;;;;;;;5088756;28;20052;-73
2023/02/28 06:53:44;;;;;;;7.85;3.63;;;;;;;;;;5088688;28;20059;-73
2023/02/28 06:56:15;;;;;;;10.73;3.05;;;;;;;;;;5088453;28;20407;-73
2023/02/28 06:58:52;;;;;;;10.52;2.92;;;;;;;;;;5088261;28;20063;-73
2023/02/28 07:01:24;;;;;;;;;;;;;;;;;;5088568;28;20047;-73
2023/02/28 07:03:55;;;;;;;13.02;2.90;;;;;;;;;;5088899;28;19924;-73
2023/02/28 07:06:25;;;;;;;4.28;2.88;;;;;;;;;;5087952;28;20059;-73
2023/02/28 07:08:55;;;;;;;8.20;3.20;;;;;;;;;;5086976;28;20535;-73
2023/02/28 07:11:28;;;;;;;6.20;3.20;;;;;;;;;;5088111;28;20408;-72
2023/02/28 07:14:00;;;;;;;9.65;3.45;;;;;;;;;;5088141;28;20048;-73
2023/02/28 07:16:30;;;;;;;8.30;3.22;;;;;;;;;;5088117;28;20416;-73
2023/02/28 07:19:00;;;;;;;10.05;3.38;;;;;;;;;;5087814;28;20040;-73
2023/02/28 07:21:31;;;;;;;6.72;3.10;;;;;;;;;;5087315;28;20495;-73
2023/02/28 07:24:02;;;;;;;7.38;3.15;;;;;;;;;;5088325;28;20043;-73
2023/02/28 07:26:35;;;;;;;6.43;3.13;;;;;;;;;;5088074;28;20495;-73
2023/02/28 07:29:06;;;;;;;5.75;2.88;;;;;;;;;;5087766;28;20048;-73
2023/02/28 07:31:36;;;;;;;4.78;3.10;;;;;;;;;;5087936;28;20059;-74
2023/02/28 07:34:07;;;;;;;5.75;3.42;;;;;;;;;;5086860;28;20423;-73
2023/02/28 07:36:38;;;;;;;8.80;3.22;;;;;;;;;;5087442;28;20122;-74
2023/02/28 07:39:09;;;;;;;6.95;3.20;;;;;;;;;;5087327;28;20056;-73
2023/02/28 07:41:43;;;;;;;13.80;3.38;;;;;;;;;;5087952;28;20051;-73
2023/02/28 07:44:14;;;;;;;7.60;3.13;;;;;;;;;;5087239;28;20052;-72
2023/02/28 07:46:45;;;;;;;5.43;3.22;;;;;;;;;;5088223;28;20048;-73
2023/02/28 07:49:17;;;;;;;6.03;2.80;;;;;;;;;;5087655;28;20036;-73
2023/02/28 07:51:47;;;;;;;7.88;3.50;;;;;;;;;;5087067;28;20067;-73
2023/02/28 07:54:17;;;;;;;7.07;3.58;;;;;;;;;;5087237;28;20052;-72
2023/02/28 07:56:47;;;;;;;8.27;3.80;;;;;;;;;;5087368;28;20047;-73
2023/02/28 07:59:18;;;;;;;13.55;3.67;;;;;;;;;;5087473;28;20518;-72
2023/02/28 08:01:50;;;;;;;5.53;3.10;;;;;;;;;;5086612;28;20048;-73
2023/02/28 08:04:20;;;;;;;7.20;3.40;;;;;;;;;;5087533;28;20036;-73
2023/02/28 08:06:52;;;;;;;11.20;3.97;;;;;;;;;;5087533;28;20407;-73
2023/02/28 08:09:24;;;;;;;11.65;4.07;;;;;;;;;;5087296;28;20047;-72
2023/02/28 08:11:55;;;;;;;5.88;2.97;;;;;;;;;;5088128;28;20507;-73
2023/02/28 08:14:26;;;;;;;8.73;3.03;;;;;;;;;;5087269;28;20040;-73
2023/02/28 08:16:55;;;;;;;9.05;3.85;;;;;;;;;;5087060;28;20441;-73
2023/02/28 08:19:25;;;;;;;6.28;3.40;;;;;;;;;;5068822;28;20048;-72
2023/02/28 08:21:56;;;;;;;4.85;3.03;;;;;;;;;;5087061;28;20059;-77
2023/02/28 08:24:28;;;;;;;4.88;3.15;;;;;;;;;;5086922;28;20047;-73
2023/02/28 08:26:59;;;;;;;6.60;3.28;;;;;;;;;;5069255;28;20056;-73
2023/02/28 08:29:30;;;;;;;4.75;3.17;;;;;;;;;;5086874;28;20050;-72
2023/02/28 08:32:01;;;;;;;6.05;3.53;;;;;;;;;;5086398;28;20052;-72
2023/02/28 08:34:32;;;;;;;6.10;3.55;;;;;;;;;;5086879;28;20074;-73
2023/02/28 08:37:02;;;;;;;17.20;3.85;;;;;;;;;;5087419;28;20058;-72
2023/02/28 08:39:35;;;;;;;9.02;3.63;;;;;;;;;;5086887;28;20052;-73
2023/02/28 08:42:06;;;;;;;8.10;3.83;;;;;;;;;;5086574;28;20414;-74
2023/02/28 08:44:36;;;;;;;8.57;3.55;;;;;;;;;;5086086;28;20036;-73
2023/02/28 08:47:07;;;;;;;11.63;3.70;;;;;;;;;;5086768;28;20055;-74
2023/02/28 08:49:38;;;;;;;10.82;3.60;;;;;;;;;;5086553;28;20056;-73
2023/02/28 08:52:08;;;;;;;14.18;3.63;;;;;;;;;;5086318;28;20060;-73
2023/02/28 08:54:40;;;;;;;8.52;3.92;;;;;;;;;;5086571;28;20589;-74
2023/02/28 08:57:11;;;;;;;10.52;3.67;;;;;;;;;;5086929;28;20059;-74
2023/02/28 08:59:41;;;;;;;7.22;3.30;;;;;;;;;;5086585;28;20423;-73
2023/02/28 09:02:15;;;;;;;12.52;3.78;;;;;;;;;;5087282;28;20055;-73
2023/02/28 09:04:46;;;;;;;8.70;3.47;;;;;;;;;;5090284;28;20036;-72
2023/02/28 09:07:17;;;;;;;9.75;3.90;;;;;;;;;;5090415;28;20051;-70
2023/02/28 09:09:53;;;;;;;4.97;3.35;;;;;;;;;;5071506;28;20062;-73
2023/02/28 09:12:35;;;;;;;10.27;3.95;;;;;;;;;;5072198;28;20058;-71
2023/02/28 09:15:07;;;;;;;8.35;3.50;;;;;;;;;;5090580;28;20056;-72
2023/02/28 09:17:38;;;;;;;11.80;3.53;;;;;;;;;;5090014;28;20051;-72
2023/02/28 09:20:08;;;;;;;10.32;3.75;;;;;;;;;;5090288;28;20055;-71
2023/02/28 09:22:40;;;;;;;5.88;3.75;;;;;;;;;;5090443;28;20048;-71
2023/02/28 09:25:11;;;;;;;4.95;3.38;;;;;;;;;;5090105;28;20040;-73
2023/02/28 09:27:41;;;;;;;11.80;3.88;;;;;;;;;;5090804;28;20052;-74
2023/02/28 09:30:12;;;;;;;10.55;4.35;;;;;;;;;;5090256;28;20475;-72
2023/02/28 09:32:51;;;;;;;10.80;3.45;;;;;;;;;;5089556;28;20510;-72
2023/02/28 09:35:23;;;;;;;7.05;4.18;;;;;;;;;;5090173;28;20091;-73
2023/02/28 09:37:54;;;;;;;13.52;4.32;;;;;;;;;;5090115;28;20039;-72
2023/02/28 09:40:25;;;;;;;10.23;4.32;;;;;;;;;;5089587;28;20063;-71
2023/02/28 09:43:00;;;;;;;9.00;4.00;;;;;;;;;;5089607;28;20522;-71
2023/02/28 09:45:41;;;;;;;9.80;4.25;;;;;;;;;;5089253;28;20043;-71
2023/02/28 09:48:25;;;;;;;8.52;4.45;;;;;;;;;;5089372;28;20044;-72
2023/02/28 09:51:12;;;;;;;8.07;4.75;;;;;;;;;;5090095;28;20056;-72
2023/02/28 09:53:43;;;;;;;6.97;3.95;;;;;;;;;;5089294;28;20059;-73
2023/02/28 09:56:37;;;;;;;15.18;4.45;;;;;;;;;;5108451;28;20046;-73
2023/02/28 09:59:10;;;;;;;9.45;4.05;;;;;;;;;;5109475;28;20047;-72
2023/02/28 10:01:59;;;;;;;9.57;4.13;;;;;;;;;;5107456;28;20043;-72
2023/02/28 10:04:51;;;;;;;12.85;4.53;;;;;;;;;;5108684;28;20043;-71
2023/02/28 10:08:10;;;;;;;10.43;4.28;;;;;;;;;;5109494;28;20620;-73
2023/02/28 10:10:47;;;;;;;15.27;4.50;;;;;;;;;;5067134;28;20055;-71
2023/02/28 10:13:44;;;;;;;17.83;4.30;;;;;;;;;;5108817;28;20035;-71
2023/02/28 10:16:29;;;;;;;7.18;4.32;;;;;;;;;;5109461;28;20039;-72
2023/02/28 10:19:12;;;;;;;7.00;4.63;;;;;;;;;;5110119;28;20055;-73
2023/02/28 10:22:07;;;;;;;8.45;4.63;;;;;;;;;;5090917;28;20129;-73
2023/02/28 10:24:52;;;;;;;15.45;5.45;;;;;;;;;;5093689;28;20059;-75
2023/02/28 10:27:26;;;;;;;12.32;5.80;;;;;;;;;;5109531;28;20047;-72
2023/02/28 10:30:00;;;;;;;15.52;5.57;;;;;;;;;;5109194;28;20040;-72
2023/02/28 10:32:33;;;;;;;17.45;4.45;;;;;;;;;;5109078;28;20040;-73
2023/02/28 10:35:10;;;;;;;5.53;3.08;;;;;;;;;;5109135;28;20086;-72
2023/02/28 10:37:47;;;;;;;6.07;3.40;;;;;;;;;;5109348;28;20055;-73
2023/02/28 10:40:18;;;;;;;12.32;3.72;;;;;;;;;;5109551;28;20048;-74
2023/02/28 10:43:02;;;;;;;8.05;2.88;;;;;;;;;;5109489;28;20050;-73
2023/02/28 10:45:36;;;;;;;8.90;2.97;;;;;;;;;;5109342;28;20069;-73
2023/02/28 10:48:30;;;;;;;11.77;4.05;;;;;;;;;;5109066;28;20058;-74
2023/02/28 10:51:01;;;;;;;6.70;2.90;;;;;;;;;;5109212;28;20052;-73
2023/02/28 10:53:39;;;;;;;8.02;2.88;;;;;;;;;;5108559;28;20552;-73
2023/02/28 10:56:29;;;;;;;6.10;3.00;;;;;;;;;;5090039;28;20056;-72
2023/02/28 10:59:22;;;;;;;5.45;2.88;;;;;;;;;;5109375;28;20050;-73
2023/02/28 11:01:53;;;;;;;5.43;2.80;;;;;;;;;;5108530;28;20055;-73
2023/02/28 11:04:28;;;;;;;7.60;2.65;;;;;;;;;;5108093;28;20046;-72
2023/02/28 11:07:17;;;;;;;8.13;2.42;;;;;;;;;;5107884;28;20409;-72
2023/02/28 11:09:54;;;;;;;6.60;2.90;;;;;;;;;;5109357;28;20054;-73
2023/02/28 11:12:36;;;;;;;5.63;2.75;;;;;;;;;;5108615;28;20113;-73
2023/02/28 11:15:25;;;;;;;5.38;2.22;;;;;;;;;;5108986;28;20047;-75
2023/02/28 11:18:20;;;;;;;17.00;4.60;;;;;;;;;;5108544;28;20067;-72
2023/02/28 11:20:53;;;;;;;11.25;3.67;;;;;;;;;;5108566;28;20510;-73
2023/02/28 11:23:28;;;;;;;8.90;2.83;;;;;;;;;;5108478;28;20043;-75
2023/02/28 11:26:04;;;;;;;9.48;2.45;;;;;;;;;;5107630;28;20051;-74
2023/02/28 11:28:40;;;;;;;6.68;2.58;;;;;;;;;;5107953;28;20044;-72
2023/02/28 11:31:14;;;;;;;12.50;5.78;;;;;;;;;;5108198;28;20047;-72
2023/02/28 11:33:49;;;;;;;10.65;2.78;;;;;;;;;;5108325;28;20043;-74
2023/02/28 11:36:27;;;;;;;5.80;2.33;;;;;;;;;;5108134;28;20519;-72
2023/02/28 11:39:08;;;;;;;6.25;2.70;;;;;;;;;;5107915;28;20062;-73
2023/02/28 11:41:54;;;;;;;5.53;2.90;;;;;;;;;;5108301;28;20054;-72
2023/02/28 11:44:36;;;;;;;15.07;4.53;;;;;;;;;;5090757;28;20058;-77
2023/02/28 11:47:26;;;;;;;7.72;3.10;;;;;;;;;;5090053;28;20048;-72
2023/02/28 11:50:22;;;;;;;8.68;2.92;;;;;;;;;;5107163;28;20047;-73
2023/02/28 11:52:57;;;;;;;6.30;3.25;;;;;;;;;;5106696;28;20043;-72
2023/02/28 11:55:48;;;;;;;14.98;6.05;;;;;;;;;;5107769;28;20043;-75
2023/02/28 11:58:39;;;;;;;5.20;2.90;;;;;;;;;;5108043;28;20072;-73
2023/02/28 12:01:48;;;;;;;10.38;3.28;;;;;;;;;;5107514;28;20051;-74
2023/02/28 12:05:07;;;;;;;8.20;3.05;;;;;;;;;;5106870;28;20062;-73
2023/02/28 12:07:47;;;;;;;11.85;3.97;;;;;;;;;;5107581;28;20043;-76
2023/02/28 12:10:28;;;;;;;9.30;2.78;;;;;;;;;;5104392;28;20056;-74
2023/02/28 12:12:58;;;;;;;6.78;2.67;;;;;;;;;;5086655;28;20530;-74
2023/02/28 12:15:42;;;;;;;5.82;2.92;;;;;;;;;;5086049;28;20052;-74
2023/02/28 12:18:46;;;;;;;5.88;3.17;;;;;;;;;;5087021;28;20044;-73
2023/02/28 12:21:48;;;;;;;9.07;2.88;;;;;;;;;;5087434;28;20430;-72
2023/02/28 12:24:39;;;;;;;7.05;2.90;;;;;;;;;;5083579;28;20067;-73
2023/02/28 12:27:13;;;;;;;4.65;2.67;;;;;;;;;;5086577;28;20048;-73
2023/02/28 12:30:01;;;;;;;6.45;2.72;;;;;;;;;;5086760;28;20044;-73
2023/02/28 12:32:45;;;;;;;7.97;3.53;;;;;;;;;;5086957;28;20040;-74
2023/02/28 12:35:22;;;;;;;5.63;2.70;;;;;;;;;;5086827;28;20052;-73
2023/02/28 12:38:17;;;;;;;5.82;3.03;;;;;;;;;;5104365;28;20514;-74
2023/02/28 12:40:54;;;;;;;8.73;3.25;;;;;;;;;;5106600;28;20056;-73
2023/02/28 12:43:34;;;;;;;8.05;3.50;;;;;;;;;;5106885;28;20044;-73
2023/02/28 12:46:12;;;;;;;9.30;3.05;;;;;;;;;;5106692;28;20048;-73
2023/02/28 12:48:55;;;;;;;5.82;2.75;;;;;;;;;;5107270;28;20047;-73
2023/02/28 12:51:27;;;;;;;7.70;2.65;;;;;;;;;;5087157;28;20493;-73
2023/02/28 12:54:18;;;;;;;5.05;2.55;;;;;;;;;;5106748;28;20039;-73
2023/02/28 12:57:14;;;;;;;6.07;2.72;;;;;;;;;;5089094;28;20048;-74
2023/02/28 12:59:55;;;;;;;9.07;2.40;;;;;;;;;;5106794;28;20050;-73
2023/02/28 13:02:55;;;;;;;6.97;2.58;;;;;;;;;;5106884;28;20043;-74
2023/02/28 13:05:52;;;;;;;5.38;2.67;;;;;;;;;;5106929;28;20554;-74
2023/02/28 13:08:38;;;;;;;9.27;3.00;;;;;;;;;;5107259;28;20051;-78
2023/02/28 13:11:35;;;;;;;7.75;3.60;;;;;;;;;;5107244;28;20050;-73
2023/02/28 13:14:30;;;;;;;10.70;2.78;;;;;;;;;;5106400;28;20039;-73
2023/02/28 13:17:09;;;;;;;8.70;3.00;;;;;;;;;;5088527;28;20055;-74
2023/02/28 13:19:59;;;;;;;7.85;2.58;;;;;;;;;;5107094;28;20410;-73
2023/02/28 13:22:35;;;;;;;5.07;2.85;;;;;;;;;;5107343;28;20414;-74
2023/02/28 13:25:42;;;;;;;5.30;2.50;;;;;;;;;;5106471;28;20525;-77
2023/02/28 13:28:34;;;;;;;5.82;2.47;;;;;;;;;;5106941;28;20048;-73
2023/02/28 13:31:05;;;;;;;7.57;3.03;;;;;;;;;;5106859;28;20047;-73
2023/02/28 13:33:57;;;;;;;8.02;2.60;;;;;;;;;;5087738;28;20055;-74
2023/02/28 13:36:31;;;;;;;5.85;2.30;;;;;;;;;;5107089;28;20418;-73
2023/02/28 13:39:05;;;;;;;4.38;2.42;;;;;;;;;;5106598;28;20055;-74
2023/02/28 13:41:35;;;;;;;5.45;2.55;;;;;;;;;;5106665;28;20059;-74
2023/02/28 13:44:07;;;;;;;8.73;2.60;;;;;;;;;;5106403;28;20048;-74
2023/02/28 13:46:57;;;;;;;4.55;2.50;;;;;;;;;;5087511;28;20420;-75
2023/02/28 13:49:33;;;;;;;9.38;2.70;;;;;;;;;;5092514;28;20081;-74
2023/02/28 13:52:16;;;;;;;12.13;2.70;;;;;;;;;;5109948;28;20056;-73
2023/02/28 13:54:50;;;;;;;8.77;2.60;;;;;;;;;;5109590;28;20051;-75
2023/02/28 13:57:35;;;;;;;6.82;2.75;;;;;;;;;;5092031;28;20070;-73
2023/02/28 14:00:37;;;;;;;7.63;2.95;;;;;;;;;;5110275;28;20059;-73
2023/02/28 14:03:41;;;;;;;8.50;2.72;;;;;;;;;;5109724;28;20050;-74
2023/02/28 14:06:22;;;;;;;8.75;2.70;;;;;;;;;;5109499;28;20058;-74
2023/02/28 14:08:59;;;;;;;8.90;2.45;;;;;;;;;;5109569;28;20066;-74
2023/02/28 14:11:33;;;;;;;10.80;3.03;;;;;;;;;;5109724;28;20055;-74
2023/02/28 14:14:07;;;;;;;4.28;2.58;;;;;;;;;;5109939;28;20047;-73
2023/02/28 14:16:47;;;;;;;10.32;2.53;;;;;;;;;;5091927;28;20047;-75
2023/02/28 14:19:27;;;;;;;12.02;2.70;;;;;;;;;;5109407;28;20052;-74
2023/02/28 14:22:14;;;;;;;5.80;2.33;;;;;;;;;;5109432;28;20044;-74
2023/02/28 14:25:17;;;;;;;5.82;2.45;;;;;;;;;;5110050;28;20071;-77
2023/02/28 14:28:05;;;;;;;8.07;2.75;;;;;;;;;;5101999;28;20048;-75
2023/02/28 14:30:43;;;;;;;6.93;3.00;;;;;;;;;;5109353;28;20056;-73
2023/02/28 14:33:49;;;;;;;4.15;2.47;;;;;;;;;;5109012;28;20043;-76
2023/02/28 14:36:34;;;;;;;8.15;2.78;;;;;;;;;;5109235;28;20400;-73
2023/02/28 14:39:24;;;;;;;5.50;2.83;;;;;;;;;;5108964;28;20585;-73
2023/02/28 14:41:54;;;;;;;8.00;3.13;;;;;;;;;;5109289;28;20055;-78
2023/02/28 14:44:27;;;;;;;3.33;2.38;;;;;;;;;;5091605;28;20406;-73
2023/02/28 14:47:05;;;;;;;5.43;2.70;;;;;;;;;;5108852;28;20044;-74
2023/02/28 14:49:45;;;;;;;5.35;2.40;;;;;;;;;;5109694;28;20047;-74
2023/02/28 14:52:22;;;;;;;2.92;2.30;;;;;;;;;;5090871;28;20044;-74
2023/02/28 14:55:17;;;;;;;5.32;2.50;;;;;;;;;;5108324;28;20051;-74
2023/02/28 14:57:55;;;;;;;7.22;2.40;;;;;;;;;;5108727;28;20043;-73
2023/02/28 15:00:28;;;;;;;3.72;2.38;;;;;;;;;;5108240;28;20056;-74
2023/02/28 15:03:01;;;;;;;11.38;2.50;;;;;;;;;;5108476;28;20047;-73
2023/02/28 15:05:35;;;;;;;6.97;2.50;;;;;;;;;;5108350;28;20414;-74
2023/02/28 15:08:16;;;;;;;10.55;2.38;;;;;;;;;;5090767;28;20047;-75
2023/02/28 15:11:07;;;;;;;4.85;2.50;;;;;;;;;;5108878;28;20043;-73
2023/02/28 15:13:44;;;;;;;7.00;2.83;;;;;;;;;;5108819;28;20506;-74
2023/02/28 15:16:20;;;;;;;4.75;2.20;;;;;;;;;;5091000;28;20043;-74
2023/02/28 15:19:01;;;;;;;4.30;2.20;;;;;;;;;;5102278;28;20063;-72
2023/02/28 15:21:34;;;;;;;4.13;1.92;;;;;;;;;;5106386;28;20055;-73
2023/02/28 15:24:15;;;;;;;5.32;2.20;;;;;;;;;;5107809;28;20044;-72
2023/02/28 15:26:51;;;;;;;7.72;3.10;;;;;;;;;;5108378;28;20054;-72
2023/02/28 15:29:24;;;;;;;7.55;2.15;;;;;;;;;;5108430;28;20055;-73
2023/02/28 15:32:02;;;;;;;10.93;2.40;;;;;;;;;;5108544;28;20048;-73
2023/02/28 15:34:42;;;;;;;11.05;2.00;;;;;;;;;;5108398;28;20058;-74
2023/02/28 15:37:47;;;;;;;3.42;2.30;;;;;;;;;;5108198;28;20040;-73
2023/02/28 15:40:38;;;;;;;5.85;1.90;;;;;;;;;;5108564;28;20046;-73
2023/02/28 15:43:16;;;;;;;4.03;2.15;;;;;;;;;;5108029;28;20066;-73